YLLC weather

Lilla Creek Airport
Northern Territory, Australia

Public forecast

Using degrees Celsius for public forecast. Weather courtesy of forecast.io.

METAR (pilot weather report)

Closest report is Alice Springs Airport, 105.8 nm (196.0 km) N. Retrieved 2019/04/22 18:00 UTC (11 minutes ago):

YBAS 221800Z AUTO 27006KT 9999 // NCD 11/03 Q1022

TAF (pilot weather forecast)

Closest forecast is Alice Springs Airport, 105.8 nm (196.0 km) N. Retrieved 2019/04/22 18:00 UTC (11 minutes ago):

TAF YBAS 221703Z 2218/2318 13005KT CAVOK FM230000 13014KT CAVOK FM231000 13005KT CAVOK